< VanCam Weather - Nearby METAR Reports

Nearby METAR Reports

 

KPDX - Portland Intl
Distance from station: SW 8.9mi, 14.3km
Updated: 02/24/2018 6:53pm
Overcast
Overcast
 Wind from calm
Wind: Calm
Temperature: 45°F , 7°C
Dew Point: 36°F , 2°C
Humidity: 71%
Barometer: 30.26 inHg , 1024.7 hPa
Clouds: Overcast
Visibility: 10 miles , 16 km
Cloud details: Mostly cloudy 6000 ft
Overcast 12000 ft
2018/02/25 02:53 KPDX 250253Z 00000KT 10SM BKN060 OVC120 07/02 A3026 RMK AO2 SLP247 60001 T00670022 51012
KVUO - Vancouver
Distance from station: W 10.7mi, 17.2km
Updated: 02/24/2018 6:53pm
Overcast
Overcast
 Wind from NW
Wind: NW 3 mph , 6 km/h
Temperature: 45°F , 7°C
Dew Point: 34°F , 1°C
Humidity: 66%
Barometer: 30.26 inHg , 1024.7 hPa
Clouds: Overcast
Visibility: 10 miles , 16 km
Cloud details: Overcast 6000 ft
2018/02/25 02:53 KVUO 250253Z AUTO 31003KT 10SM OVC060 07/01 A3026 RMK AO2 SLP245 60001 T00720006 51013
 
KTTD - Troutdale
Distance from station: SSE 8.1mi, 13km
Updated: 02/24/2018 6:53pm
Overcast
Overcast
 Wind from W
Wind: W 3 mph , 6 km/h
Temperature: 41°F , 5°C
Dew Point: 37°F , 3°C
Humidity: 87%
Barometer: 30.26 inHg , 1024.7 hPa
Clouds: Overcast
Visibility: 10 miles , 16 km
Cloud details: Few Clouds 4700 ft
Overcast 6500 ft
2018/02/25 02:53 KTTD 250253Z AUTO 26003KT 10SM FEW047 OVC065 05/03 A3026 RMK AO2 SLP247 60001 T00500028 53014
KSPB - Scappoose
Distance from station: WSW 21.6mi, 34.8km
Updated: 02/24/2018 6:53pm
Overcast
Overcast
 Wind from calm
Wind: Calm
Temperature: 39°F , 4°C
Dew Point: 36°F , 2°C
Humidity: 87%
Barometer: 30.25 inHg , 1024.4 hPa
Clouds: Overcast
Visibility: 10 miles , 16 km
Cloud details: Mostly cloudy 6500 ft
Overcast 11000 ft
2018/02/25 02:53 KSPB 250253Z AUTO 00000KT 10SM BKN065 OVC110 04/02 A3025 RMK AO2 SLP243 60000 T00390017 53010
 
KHIO - Hillsboro
Distance from station: SW 25.8mi, 41.5km
Updated: 02/24/2018 6:53pm
Overcast
Overcast
 Wind from SW
Wind: SW 8 mph , 13 km/h
Temperature: 43°F , 6°C
Wind Chill: 38°F , 3°C
Dew Point: 36°F , 2°C
Humidity: 76%
Barometer: 30.26 inHg , 1024.7 hPa
Clouds: Overcast
Visibility: 10 miles , 16 km
Cloud details: Mostly cloudy 4900 ft
Overcast 6000 ft
2018/02/25 02:53 KHIO 250253Z 22007KT 10SM BKN049 OVC060 06/02 A3026 RMK AO2 SLP248 T00610017 53014
KDLS - The Dalles
Distance from station: E 61.4mi, 98.8km
Updated: 02/24/2018 6:53pm
Overcast
Overcast
 Wind from NW
Wind: NW 9 mph , 15 km/h
Temperature: 43°F , 6°C
Wind Chill: 38°F , 3°C
Dew Point: 32°F , 0°C
Humidity: 66%
Barometer: 30.18 inHg , 1022 hPa
Clouds: Overcast
Visibility: 10 miles , 16 km
Cloud details: Few Clouds 2700 ft
Mostly cloudy 6000 ft
Overcast 8000 ft
2018/02/25 02:53 KDLS 250253Z AUTO 31008KT 10SM FEW027 BKN060 OVC080 06/00 A3018 RMK AO2 SLP222 T00560000 53015
 
KAST - Astoria
Distance from station: WNW 77.2mi, 124.2km
Updated: 02/24/2018 6:55pm
Overcast
Overcast
 Wind from SSW
Wind: SSW 7 mph , 11 km/h
Temperature: 43°F , 6°C
Wind Chill: 39°F , 4°C
Dew Point: 36°F , 2°C
Humidity: 76%
Barometer: 30.23 inHg , 1023.7 hPa
Clouds: Overcast
Visibility: 10 miles , 16 km
Cloud details: Overcast 8000 ft
2018/02/25 02:55 KAST 250255Z AUTO 21006KT 10SM OVC080 06/02 A3023 RMK AO2 SLP236 T00610022 51006
KONP - Newport
Distance from station: SW 106mi, 170.4km
Updated: 02/24/2018 7:15pm
Overcast
Overcast
 Wind from WSW
Wind: WSW 5 mph , 7 km/h
Temperature: 43°F , 6°C
Wind Chill: 40°F , 4°C
Dew Point: 39°F , 4°C
Humidity: 87%
Barometer: 30.34 inHg , 1027.4 hPa
Clouds: Overcast
Visibility: 7 miles , 11 km
Cloud details: Partly cloudy 3300 ft
Overcast 6000 ft
2018/02/25 03:15 KONP 250315Z AUTO 25004KT 7SM SCT033 OVC060 06/04 A3034 RMK AO2